createdAt,value
2023-03-06T00:01:10.055Z,4.20
2023-03-06T00:03:39.672Z,4.20
2023-03-06T00:08:36.940Z,4.10
2023-03-06T00:16:03.376Z,4.20
2023-03-06T00:21:01.524Z,4.10
2023-03-06T00:23:29.946Z,4.10
2023-03-06T00:33:28.252Z,4.00
2023-03-06T00:38:28.546Z,4.00
2023-03-06T00:45:54.865Z,4.00
2023-03-06T00:50:53.540Z,4.00
2023-03-06T00:55:53.061Z,4.00
2023-03-06T00:58:21.371Z,4.00
2023-03-06T01:05:47.580Z,4.00
2023-03-06T01:13:14.355Z,4.00
2023-03-06T01:25:37.842Z,3.90
2023-03-06T01:30:35.978Z,3.90
2023-03-06T01:40:32.860Z,3.90
2023-03-06T01:46:22.830Z,3.90
2023-03-06T01:48:56.603Z,3.90
2023-03-06T01:51:30.571Z,3.90
2023-03-06T01:54:02.099Z,3.90
2023-03-06T02:01:31.049Z,4.00
2023-03-06T02:04:00.535Z,3.90
2023-03-06T02:16:28.873Z,4.00
2023-03-06T02:19:01.365Z,3.90
2023-03-06T02:21:35.400Z,3.90
2023-03-06T02:24:19.784Z,4.00
2023-03-06T02:26:50.414Z,3.90
2023-03-06T02:29:25.425Z,3.90
2023-03-06T02:34:56.163Z,3.90
2023-03-06T02:40:08.084Z,3.90
2023-03-06T02:42:37.798Z,3.90
2023-03-06T02:45:13.188Z,3.90
2023-03-06T02:50:12.597Z,3.90
2023-03-06T02:55:10.447Z,3.90
2023-03-06T02:57:40.073Z,3.80
2023-03-06T03:00:11.159Z,3.90
2023-03-06T03:02:39.736Z,3.90
2023-03-06T03:05:09.172Z,3.90
2023-03-06T03:07:42.596Z,3.90
2023-03-06T03:10:12.595Z,3.90
2023-03-06T03:12:42.976Z,3.90
2023-03-06T03:15:12.450Z,3.90
2023-03-06T03:17:42.004Z,3.90
2023-03-06T03:20:15.246Z,3.90
2023-03-06T03:27:42.835Z,3.80
2023-03-06T03:30:13.164Z,3.80
2023-03-06T03:35:12.829Z,3.90
2023-03-06T03:37:42.399Z,3.80
2023-03-06T03:40:12.670Z,3.80
2023-03-06T03:45:12.942Z,3.80
2023-03-06T03:47:41.772Z,3.80
2023-03-06T03:50:12.070Z,3.80
2023-03-06T03:52:40.944Z,3.80
2023-03-06T03:55:10.462Z,3.80
2023-03-06T04:00:16.400Z,3.80
2023-03-06T04:13:14.441Z,3.80
2023-03-06T04:18:16.215Z,3.80
2023-03-06T04:20:46.530Z,3.80
2023-03-06T04:23:16.204Z,3.80
2023-03-06T04:28:15.663Z,3.80
2023-03-06T04:30:44.526Z,3.80
2023-03-06T04:43:19.219Z,3.80
2023-03-06T04:48:18.041Z,3.80
2023-03-06T04:55:45.114Z,3.70
2023-03-06T05:00:44.689Z,3.70
2023-03-06T05:05:43.537Z,3.80
2023-03-06T05:13:13.068Z,3.80
2023-03-06T05:15:41.986Z,3.80
2023-03-06T05:18:11.565Z,3.80
2023-03-06T05:30:36.733Z,3.80
2023-03-06T05:35:35.465Z,3.80
2023-03-06T05:38:04.099Z,3.70
2023-03-06T05:52:56.568Z,3.80
2023-03-06T05:55:25.134Z,3.70
2023-03-06T06:00:24.650Z,3.70
2023-03-06T06:07:50.001Z,3.70
2023-03-06T06:10:19.927Z,3.70
2023-03-06T06:12:48.149Z,3.70
2023-03-06T06:20:14.792Z,3.70
2023-03-06T06:25:11.557Z,3.70
2023-03-06T06:27:41.166Z,3.60
2023-03-06T06:30:12.617Z,3.70
2023-03-06T06:45:12.681Z,3.70
2023-03-06T06:50:14.032Z,3.70
2023-03-06T06:57:42.001Z,3.70
2023-03-06T07:00:15.778Z,3.70
2023-03-06T07:07:41.618Z,3.70
2023-03-06T07:10:15.304Z,3.70
2023-03-06T07:12:43.990Z,3.80
2023-03-06T07:15:16.598Z,3.80
2023-03-06T07:25:22.614Z,4.00
2023-03-06T07:27:54.447Z,4.00
2023-03-06T07:30:25.568Z,4.00
2023-03-06T07:32:55.307Z,4.10
2023-03-06T07:37:53.049Z,4.20
2023-03-06T07:40:26.150Z,4.20
2023-03-06T07:43:06.087Z,4.20
2023-03-06T07:45:46.998Z,4.20
2023-03-06T07:55:42.401Z,4.30
2023-03-06T08:03:11.190Z,4.30
2023-03-06T08:08:09.141Z,4.40
2023-03-06T08:20:33.312Z,4.40
2023-03-06T08:32:55.994Z,4.60
2023-03-06T08:37:54.836Z,4.60
2023-03-06T08:40:23.412Z,4.70
2023-03-06T08:50:18.942Z,4.90
2023-03-06T08:52:47.289Z,4.90
2023-03-06T08:55:17.170Z,4.90
2023-03-06T09:00:16.279Z,5.00
2023-03-06T09:05:13.351Z,5.00
2023-03-06T09:10:17.894Z,5.00
2023-03-06T09:15:21.845Z,5.10
2023-03-06T09:20:19.783Z,5.20
2023-03-06T09:25:20.477Z,5.20
2023-03-06T09:28:01.937Z,5.30
2023-03-06T09:30:37.382Z,5.30
2023-03-06T09:38:03.117Z,5.40
2023-03-06T09:40:52.523Z,5.50
2023-03-06T09:43:26.615Z,5.50
2023-03-06T09:45:55.437Z,5.60
2023-03-06T09:48:37.587Z,5.60
2023-03-06T09:51:13.542Z,5.70
2023-03-06T09:53:59.995Z,5.60
2023-03-06T09:56:33.794Z,5.80
2023-03-06T09:59:18.281Z,5.90
2023-03-06T10:01:56.034Z,5.90
2023-03-06T10:04:37.217Z,6.00
2023-03-06T10:07:15.638Z,6.10
2023-03-06T10:09:51.730Z,6.10
2023-03-06T10:12:26.066Z,6.20
2023-03-06T10:15:13.059Z,6.20
2023-03-06T10:17:43.622Z,5.60
2023-03-06T10:20:20.705Z,6.10
2023-03-06T10:23:11.249Z,6.10
2023-03-06T10:25:49.917Z,6.20
2023-03-06T10:28:25.523Z,6.20
2023-03-06T10:31:01.252Z,6.20
2023-03-06T10:33:43.621Z,6.20
2023-03-06T10:36:16.165Z,6.20
2023-03-06T10:38:46.050Z,6.30
2023-03-06T10:41:27.448Z,6.40
2023-03-06T10:44:23.633Z,6.40
2023-03-06T10:46:54.775Z,6.50
2023-03-06T10:49:31.954Z,6.60
2023-03-06T10:52:04.242Z,6.70
2023-03-06T10:54:34.931Z,6.80
2023-03-06T10:57:26.218Z,6.90
2023-03-06T10:59:58.627Z,7.00
2023-03-06T11:02:31.339Z,7.10
2023-03-06T11:05:02.190Z,7.10
2023-03-06T11:07:32.747Z,7.20
2023-03-06T11:10:16.778Z,7.20
2023-03-06T11:12:56.720Z,7.20
2023-03-06T11:15:27.583Z,7.20
2023-03-06T11:18:00.307Z,7.20
2023-03-06T11:20:50.158Z,7.10
2023-03-06T11:23:22.812Z,7.10
2023-03-06T11:25:57.202Z,7.10
2023-03-06T11:28:29.797Z,7.00
2023-03-06T11:31:04.854Z,7.00
2023-03-06T11:33:41.578Z,7.00
2023-03-06T11:36:16.725Z,7.00
2023-03-06T11:38:50.905Z,6.90
2023-03-06T11:41:32.420Z,7.00
2023-03-06T11:44:12.134Z,7.00
2023-03-06T11:46:48.641Z,7.10
2023-03-06T11:49:25.328Z,7.00
2023-03-06T11:51:58.668Z,7.00
2023-03-06T11:57:00.642Z,6.90
2023-03-06T12:00:02.275Z,6.90
2023-03-06T12:03:00.233Z,6.90
2023-03-06T12:05:38.133Z,6.90
2023-03-06T12:08:45.009Z,6.80
2023-03-06T12:11:21.344Z,6.80
2023-03-06T12:14:06.298Z,6.90
2023-03-06T12:17:02.597Z,6.90
2023-03-06T12:19:49.836Z,7.00
2023-03-06T12:22:53.295Z,7.10
2023-03-06T12:25:36.370Z,7.20
2023-03-06T12:28:38.410Z,7.30
2023-03-06T12:31:28.865Z,7.40
2023-03-06T12:34:23.562Z,7.50
2023-03-06T12:37:09.613Z,7.60
2023-03-06T12:39:56.864Z,7.80
2023-03-06T12:42:42.314Z,9.40
2023-03-06T12:45:27.654Z,8.00
2023-03-06T12:47:58.109Z,8.00
2023-03-06T12:50:28.749Z,7.90
2023-03-06T12:53:03.035Z,7.90
2023-03-06T12:55:41.412Z,7.80
2023-03-06T12:58:35.686Z,7.80
2023-03-06T13:01:10.481Z,7.90
2023-03-06T13:03:52.700Z,7.90
2023-03-06T13:06:54.140Z,7.80
2023-03-06T13:09:34.581Z,7.80
2023-03-06T13:12:26.743Z,7.80
2023-03-06T13:15:00.691Z,7.80
2023-03-06T13:17:36.824Z,7.80
2023-03-06T13:20:40.076Z,7.80
2023-03-06T13:23:51.599Z,7.70
2023-03-06T13:26:55.668Z,7.80
2023-03-06T13:30:21.557Z,7.90
2023-03-06T13:32:52.771Z,7.90
2023-03-06T13:35:53.548Z,7.80
2023-03-06T13:38:38.635Z,7.70
2023-03-06T13:41:35.655Z,7.70
2023-03-06T13:44:47.305Z,7.80
2023-03-06T13:48:33.837Z,7.80
2023-03-06T13:50:47.557Z,7.90
2023-03-06T13:54:17.297Z,8.00
2023-03-06T13:57:17.613Z,8.10
2023-03-06T14:00:44.476Z,8.00
2023-03-06T14:04:00.855Z,7.90
2023-03-06T14:06:53.915Z,7.70
2023-03-06T14:09:30.329Z,7.70
2023-03-06T14:12:03.435Z,7.70
2023-03-06T14:14:41.193Z,7.70
2023-03-06T14:17:26.487Z,7.70
2023-03-06T14:19:55.347Z,7.70
2023-03-06T14:22:25.718Z,7.60
2023-03-06T14:25:00.596Z,7.50
2023-03-06T14:27:49.404Z,7.40
2023-03-06T14:30:20.936Z,7.30
2023-03-06T14:32:54.634Z,7.20
2023-03-06T14:35:28.177Z,7.10
2023-03-06T14:38:00.182Z,7.10
2023-03-06T14:40:34.372Z,7.10
2023-03-06T14:43:18.748Z,6.90
2023-03-06T14:45:52.504Z,6.90
2023-03-06T14:48:22.259Z,6.90
2023-03-06T14:50:53.782Z,6.90
2023-03-06T14:53:27.780Z,6.80
2023-03-06T14:56:00.084Z,6.80
2023-03-06T14:58:34.465Z,6.70
2023-03-06T15:01:06.782Z,6.60
2023-03-06T15:03:45.488Z,6.50
2023-03-06T15:06:21.061Z,6.50
2023-03-06T15:08:56.893Z,6.40
2023-03-06T15:14:03.836Z,6.40
2023-03-06T15:16:32.705Z,6.40
2023-03-06T15:19:03.677Z,6.30
2023-03-06T15:21:36.626Z,6.30
2023-03-06T15:24:33.004Z,6.30
2023-03-06T15:27:06.000Z,6.20
2023-03-06T15:29:38.760Z,6.10
2023-03-06T15:32:42.395Z,6.10
2023-03-06T15:35:32.700Z,6.10
2023-03-06T15:38:01.849Z,6.10
2023-03-06T15:40:32.906Z,6.10
2023-03-06T15:43:01.974Z,6.10
2023-03-06T15:50:30.475Z,6.00
2023-03-06T15:57:59.615Z,5.90
2023-03-06T16:00:30.765Z,5.90
2023-03-06T16:02:59.808Z,5.80
2023-03-06T16:05:30.605Z,5.80
2023-03-06T16:07:59.109Z,5.80
2023-03-06T16:10:31.760Z,5.80
2023-03-06T16:13:06.187Z,5.80
2023-03-06T16:15:40.792Z,5.80
2023-03-06T16:18:11.827Z,5.70
2023-03-06T16:20:42.867Z,5.70
2023-03-06T16:25:43.078Z,5.60
2023-03-06T16:28:14.641Z,5.60
2023-03-06T16:30:44.980Z,5.50
2023-03-06T16:33:14.350Z,5.50
2023-03-06T16:35:46.463Z,5.50
2023-03-06T16:48:17.683Z,5.30
2023-03-06T16:50:47.534Z,5.40
2023-03-06T16:55:44.590Z,5.40
2023-03-06T17:08:09.007Z,5.10
2023-03-06T17:10:39.876Z,5.10
2023-03-06T17:25:34.872Z,4.90
2023-03-06T17:30:31.931Z,4.80
2023-03-06T17:35:29.047Z,4.80
2023-03-06T17:37:58.506Z,4.70
2023-03-06T17:40:26.731Z,4.70
2023-03-06T17:42:56.298Z,4.70
2023-03-06T17:47:55.711Z,4.60
2023-03-06T18:12:47.263Z,4.40
2023-03-06T18:15:15.493Z,4.40
2023-03-06T18:17:45.062Z,4.40
2023-03-06T18:20:13.889Z,4.40
2023-03-06T18:30:09.689Z,4.40
2023-03-06T18:35:09.659Z,4.40
2023-03-06T18:40:08.488Z,4.40
2023-03-06T18:52:34.196Z,4.30
2023-03-06T18:57:31.001Z,4.30
2023-03-06T19:07:26.468Z,4.30
2023-03-06T19:09:56.052Z,4.30
2023-03-06T19:19:52.851Z,4.20
2023-03-06T19:22:22.049Z,4.20
2023-03-06T19:27:20.431Z,4.10
2023-03-06T19:37:17.283Z,4.10
2023-03-06T19:44:44.254Z,4.00
2023-03-06T20:02:05.462Z,3.50
2023-03-06T20:04:34.456Z,4.00
2023-03-06T20:07:04.735Z,4.30
2023-03-06T20:09:33.242Z,4.00
2023-03-06T20:16:59.067Z,4.00
2023-03-06T20:19:28.857Z,4.00
2023-03-06T20:24:25.990Z,4.00
2023-03-06T20:29:28.374Z,4.00
2023-03-06T20:31:58.264Z,4.00
2023-03-06T21:06:53.162Z,3.80
2023-03-06T21:09:21.766Z,3.80
2023-03-06T21:11:50.719Z,3.70
2023-03-06T21:24:14.854Z,3.60
2023-03-06T21:34:11.366Z,3.60
2023-03-06T21:36:39.580Z,3.60
2023-03-06T21:41:38.179Z,3.60
2023-03-06T21:44:08.018Z,3.70
2023-03-06T21:46:36.718Z,3.70
2023-03-06T21:49:06.330Z,3.70
2023-03-06T21:59:03.158Z,3.70
2023-03-06T22:01:31.682Z,3.70
2023-03-06T22:06:31.238Z,3.80
2023-03-06T22:09:00.966Z,3.70
2023-03-06T22:11:31.217Z,3.80
2023-03-06T22:13:59.617Z,3.80
2023-03-06T22:16:29.871Z,3.80
2023-03-06T22:23:58.388Z,3.80
2023-03-06T22:26:28.480Z,3.90
2023-03-06T22:31:28.399Z,3.90
2023-03-06T22:34:00.760Z,3.90
2023-03-06T22:39:02.445Z,3.90
2023-03-06T22:41:31.614Z,3.90
2023-03-06T22:44:01.419Z,3.90
2023-03-06T22:49:01.030Z,3.90
2023-03-06T22:51:30.408Z,3.90
2023-03-06T22:56:27.365Z,4.00
2023-03-06T23:01:28.043Z,3.90
2023-03-06T23:04:00.080Z,4.00
2023-03-06T23:06:31.332Z,4.00
2023-03-06T23:09:03.717Z,4.00
2023-03-06T23:11:32.420Z,4.00
2023-03-06T23:14:20.712Z,4.00
2023-03-06T23:19:56.557Z,4.00
2023-03-06T23:35:26.686Z,4.00
2023-03-06T23:52:48.810Z,4.00
